sensor_id;sensor_type;location;lat;lon;timestamp;temperature;humidity
21019;DHT22;10667;51.056;3.732;2023-12-28T00:02:06;11.40;99.90
21019;DHT22;10667;51.056;3.732;2023-12-28T00:04:32;11.30;99.90
21019;DHT22;10667;51.056;3.732;2023-12-28T00:07:00;11.40;99.90
21019;DHT22;10667;51.056;3.732;2023-12-28T00:09:25;11.40;99.90
21019;DHT22;10667;51.056;3.732;2023-12-28T00:11:51;11.40;99.90
21019;DHT22;10667;51.056;3.732;2023-12-28T00:14:17;11.30;99.90
21019;DHT22;10667;51.056;3.732;2023-12-28T00:16:42;11.30;99.90
21019;DHT22;10667;51.056;3.732;2023-12-28T00:19:08;11.30;99.90
21019;DHT22;10667;51.056;3.732;2023-12-28T00:21:34;11.30;99.90
21019;DHT22;10667;51.056;3.732;2023-12-28T00:23:59;11.40;99.90
21019;DHT22;10667;51.056;3.732;2023-12-28T00:26:25;11.40;99.90
21019;DHT22;10667;51.056;3.732;2023-12-28T00:28:50;11.40;99.90
21019;DHT22;10667;51.056;3.732;2023-12-28T00:31:16;11.40;99.90
21019;DHT22;10667;51.056;3.732;2023-12-28T00:33:42;11.30;99.90
21019;DHT22;10667;51.056;3.732;2023-12-28T00:36:08;11.20;99.90
21019;DHT22;10667;51.056;3.732;2023-12-28T00:38:33;11.30;99.90
21019;DHT22;10667;51.056;3.732;2023-12-28T00:40:59;11.40;99.90
21019;DHT22;10667;51.056;3.732;2023-12-28T00:43:24;11.50;99.90
21019;DHT22;10667;51.056;3.732;2023-12-28T00:45:50;11.30;99.90
21019;DHT22;10667;51.056;3.732;2023-12-28T00:48:16;11.30;99.90
21019;DHT22;10667;51.056;3.732;2023-12-28T00:50:41;11.20;99.90
21019;DHT22;10667;51.056;3.732;2023-12-28T00:53:07;11.20;99.90
21019;DHT22;10667;51.056;3.732;2023-12-28T00:55:32;11.30;99.90
21019;DHT22;10667;51.056;3.732;2023-12-28T00:57:58;11.30;99.90
21019;DHT22;10667;51.056;3.732;2023-12-28T01:00:24;11.30;99.90
21019;DHT22;10667;51.056;3.732;2023-12-28T01:02:49;11.30;99.90
21019;DHT22;10667;51.056;3.732;2023-12-28T01:05:16;11.30;99.90
21019;DHT22;10667;51.056;3.732;2023-12-28T01:07:42;11.30;99.90
21019;DHT22;10667;51.056;3.732;2023-12-28T01:10:08;11.30;99.90
21019;DHT22;10667;51.056;3.732;2023-12-28T01:12:33;11.20;99.90
21019;DHT22;10667;51.056;3.732;2023-12-28T01:14:59;11.20;99.90
21019;DHT22;10667;51.056;3.732;2023-12-28T01:17:25;11.20;99.90
21019;DHT22;10667;51.056;3.732;2023-12-28T01:19:50;11.20;99.90
21019;DHT22;10667;51.056;3.732;2023-12-28T01:22:16;11.20;99.90
21019;DHT22;10667;51.056;3.732;2023-12-28T01:24:42;11.20;99.90
21019;DHT22;10667;51.056;3.732;2023-12-28T01:27:07;11.20;99.90
21019;DHT22;10667;51.056;3.732;2023-12-28T01:29:33;11.20;99.90
21019;DHT22;10667;51.056;3.732;2023-12-28T01:31:59;11.30;99.90
21019;DHT22;10667;51.056;3.732;2023-12-28T01:34:25;11.20;99.90
21019;DHT22;10667;51.056;3.732;2023-12-28T01:36:51;11.30;99.90
21019;DHT22;10667;51.056;3.732;2023-12-28T01:39:16;11.20;99.90
21019;DHT22;10667;51.056;3.732;2023-12-28T01:41:45;11.20;99.90
21019;DHT22;10667;51.056;3.732;2023-12-28T01:44:11;11.30;99.90
21019;DHT22;10667;51.056;3.732;2023-12-28T01:46:37;11.30;99.90
21019;DHT22;10667;51.056;3.732;2023-12-28T01:49:03;11.40;99.90
21019;DHT22;10667;51.056;3.732;2023-12-28T01:51:30;11.30;99.90
21019;DHT22;10667;51.056;3.732;2023-12-28T01:53:57;11.30;99.90
21019;DHT22;10667;51.056;3.732;2023-12-28T01:56:23;11.20;99.90
21019;DHT22;10667;51.056;3.732;2023-12-28T01:58:50;11.20;99.90
21019;DHT22;10667;51.056;3.732;2023-12-28T02:01:17;11.20;99.90
21019;DHT22;10667;51.056;3.732;2023-12-28T02:03:44;11.20;99.90
21019;DHT22;10667;51.056;3.732;2023-12-28T02:06:10;11.20;99.90
21019;DHT22;10667;51.056;3.732;2023-12-28T02:08:36;11.20;99.90
21019;DHT22;10667;51.056;3.732;2023-12-28T02:11:02;11.20;99.90
21019;DHT22;10667;51.056;3.732;2023-12-28T02:13:28;11.20;99.90
21019;DHT22;10667;51.056;3.732;2023-12-28T02:16:10;11.30;99.90
21019;DHT22;10667;51.056;3.732;2023-12-28T02:18:43;11.20;99.90
21019;DHT22;10667;51.056;3.732;2023-12-28T02:21:12;11.30;99.90
21019;DHT22;10667;51.056;3.732;2023-12-28T02:23:37;11.20;99.90
21019;DHT22;10667;51.056;3.732;2023-12-28T02:26:03;11.20;99.90
21019;DHT22;10667;51.056;3.732;2023-12-28T02:28:29;11.20;99.90
21019;DHT22;10667;51.056;3.732;2023-12-28T02:30:54;11.20;99.90
21019;DHT22;10667;51.056;3.732;2023-12-28T02:33:29;11.30;99.90
21019;DHT22;10667;51.056;3.732;2023-12-28T02:36:08;11.30;99.90
21019;DHT22;10667;51.056;3.732;2023-12-28T02:38:37;11.40;99.90
21019;DHT22;10667;51.056;3.732;2023-12-28T02:41:03;11.30;99.90
21019;DHT22;10667;51.056;3.732;2023-12-28T02:43:30;11.30;99.90
21019;DHT22;10667;51.056;3.732;2023-12-28T02:45:57;11.30;99.90
21019;DHT22;10667;51.056;3.732;2023-12-28T02:48:22;11.20;99.90
21019;DHT22;10667;51.056;3.732;2023-12-28T02:50:48;11.20;99.90
21019;DHT22;10667;51.056;3.732;2023-12-28T02:53:14;11.20;99.90
21019;DHT22;10667;51.056;3.732;2023-12-28T02:55:39;11.20;99.90
21019;DHT22;10667;51.056;3.732;2023-12-28T02:58:05;11.20;99.90
21019;DHT22;10667;51.056;3.732;2023-12-28T03:00:31;11.30;99.90
21019;DHT22;10667;51.056;3.732;2023-12-28T03:02:56;11.20;99.90
21019;DHT22;10667;51.056;3.732;2023-12-28T03:05:22;11.30;99.90
21019;DHT22;10667;51.056;3.732;2023-12-28T03:07:48;11.30;99.90
21019;DHT22;10667;51.056;3.732;2023-12-28T03:10:14;11.30;99.90
21019;DHT22;10667;51.056;3.732;2023-12-28T03:12:39;11.40;99.90
21019;DHT22;10667;51.056;3.732;2023-12-28T03:15:06;11.40;99.90
21019;DHT22;10667;51.056;3.732;2023-12-28T03:17:31;11.40;99.90
21019;DHT22;10667;51.056;3.732;2023-12-28T03:20:01;11.30;99.90
21019;DHT22;10667;51.056;3.732;2023-12-28T03:22:27;11.40;99.90
21019;DHT22;10667;51.056;3.732;2023-12-28T03:24:52;11.40;99.90
21019;DHT22;10667;51.056;3.732;2023-12-28T03:27:18;11.40;99.90
21019;DHT22;10667;51.056;3.732;2023-12-28T03:29:44;11.30;99.90
21019;DHT22;10667;51.056;3.732;2023-12-28T03:32:10;11.20;99.90
21019;DHT22;10667;51.056;3.732;2023-12-28T03:34:35;11.30;99.90
21019;DHT22;10667;51.056;3.732;2023-12-28T03:37:01;11.30;99.90
21019;DHT22;10667;51.056;3.732;2023-12-28T03:39:27;11.20;99.90
21019;DHT22;10667;51.056;3.732;2023-12-28T03:41:53;11.20;99.90
21019;DHT22;10667;51.056;3.732;2023-12-28T03:44:20;11.30;99.90
21019;DHT22;10667;51.056;3.732;2023-12-28T03:46:51;11.20;99.90
21019;DHT22;10667;51.056;3.732;2023-12-28T03:49:17;11.30;99.90
21019;DHT22;10667;51.056;3.732;2023-12-28T03:51:43;11.20;99.90
21019;DHT22;10667;51.056;3.732;2023-12-28T03:54:09;11.20;99.90
21019;DHT22;10667;51.056;3.732;2023-12-28T03:56:34;11.40;99.90
21019;DHT22;10667;51.056;3.732;2023-12-28T03:59:01;11.40;99.90
21019;DHT22;10667;51.056;3.732;2023-12-28T04:01:26;11.40;99.90
21019;DHT22;10667;51.056;3.732;2023-12-28T04:03:52;11.50;99.90
21019;DHT22;10667;51.056;3.732;2023-12-28T04:06:18;11.50;99.90
21019;DHT22;10667;51.056;3.732;2023-12-28T04:08:43;11.60;99.90
21019;DHT22;10667;51.056;3.732;2023-12-28T04:11:09;11.60;99.90
21019;DHT22;10667;51.056;3.732;2023-12-28T04:13:36;11.60;99.90
21019;DHT22;10667;51.056;3.732;2023-12-28T04:16:02;11.50;99.90
21019;DHT22;10667;51.056;3.732;2023-12-28T04:18:29;11.60;99.90
21019;DHT22;10667;51.056;3.732;2023-12-28T04:20:55;11.60;99.90
21019;DHT22;10667;51.056;3.732;2023-12-28T04:23:21;11.50;99.90
21019;DHT22;10667;51.056;3.732;2023-12-28T04:25:46;11.50;99.90
21019;DHT22;10667;51.056;3.732;2023-12-28T04:28:12;11.40;99.90
21019;DHT22;10667;51.056;3.732;2023-12-28T04:30:37;11.40;99.90
21019;DHT22;10667;51.056;3.732;2023-12-28T04:33:03;11.40;99.90
21019;DHT22;10667;51.056;3.732;2023-12-28T04:35:29;11.40;99.90
21019;DHT22;10667;51.056;3.732;2023-12-28T04:37:55;11.50;99.90
21019;DHT22;10667;51.056;3.732;2023-12-28T04:40:21;11.40;99.90
21019;DHT22;10667;51.056;3.732;2023-12-28T04:42:47;11.40;99.90
21019;DHT22;10667;51.056;3.732;2023-12-28T04:45:13;11.50;99.90
21019;DHT22;10667;51.056;3.732;2023-12-28T04:47:38;11.50;99.90
21019;DHT22;10667;51.056;3.732;2023-12-28T04:50:05;11.60;99.90
21019;DHT22;10667;51.056;3.732;2023-12-28T04:52:31;11.50;99.90
21019;DHT22;10667;51.056;3.732;2023-12-28T04:54:57;11.50;99.90
21019;DHT22;10667;51.056;3.732;2023-12-28T04:57:23;11.50;99.90
21019;DHT22;10667;51.056;3.732;2023-12-28T04:59:53;11.50;99.90
21019;DHT22;10667;51.056;3.732;2023-12-28T05:02:19;11.50;99.90
21019;DHT22;10667;51.056;3.732;2023-12-28T05:04:45;11.30;99.90
21019;DHT22;10667;51.056;3.732;2023-12-28T05:07:10;11.40;99.90
21019;DHT22;10667;51.056;3.732;2023-12-28T05:09:36;11.30;99.90
21019;DHT22;10667;51.056;3.732;2023-12-28T05:12:02;11.30;99.90
21019;DHT22;10667;51.056;3.732;2023-12-28T05:14:28;11.30;99.90
21019;DHT22;10667;51.056;3.732;2023-12-28T05:16:53;11.20;99.90
21019;DHT22;10667;51.056;3.732;2023-12-28T05:19:19;11.10;99.90
21019;DHT22;10667;51.056;3.732;2023-12-28T05:21:45;11.10;99.90
21019;DHT22;10667;51.056;3.732;2023-12-28T05:24:11;11.10;99.90
21019;DHT22;10667;51.056;3.732;2023-12-28T05:26:37;11.20;99.90
21019;DHT22;10667;51.056;3.732;2023-12-28T05:29:03;11.20;99.90
21019;DHT22;10667;51.056;3.732;2023-12-28T05:31:28;11.20;99.90
21019;DHT22;10667;51.056;3.732;2023-12-28T05:33:54;11.20;99.90
21019;DHT22;10667;51.056;3.732;2023-12-28T05:36:20;11.20;99.90
21019;DHT22;10667;51.056;3.732;2023-12-28T05:38:45;11.30;99.90
21019;DHT22;10667;51.056;3.732;2023-12-28T05:41:11;11.20;99.90
21019;DHT22;10667;51.056;3.732;2023-12-28T05:43:38;11.20;99.90
21019;DHT22;10667;51.056;3.732;2023-12-28T05:46:04;11.20;99.90
21019;DHT22;10667;51.056;3.732;2023-12-28T05:48:30;11.30;99.90
21019;DHT22;10667;51.056;3.732;2023-12-28T05:50:59;11.30;99.90
21019;DHT22;10667;51.056;3.732;2023-12-28T05:53:25;11.30;99.90
21019;DHT22;10667;51.056;3.732;2023-12-28T05:55:52;11.20;99.90
21019;DHT22;10667;51.056;3.732;2023-12-28T05:58:17;11.20;99.90
21019;DHT22;10667;51.056;3.732;2023-12-28T06:00:43;11.20;99.90
21019;DHT22;10667;51.056;3.732;2023-12-28T06:03:09;11.20;99.90
21019;DHT22;10667;51.056;3.732;2023-12-28T06:05:34;11.00;99.90
21019;DHT22;10667;51.056;3.732;2023-12-28T06:08:00;11.10;99.90
21019;DHT22;10667;51.056;3.732;2023-12-28T06:10:26;11.10;99.90
21019;DHT22;10667;51.056;3.732;2023-12-28T06:12:51;11.10;99.90
21019;DHT22;10667;51.056;3.732;2023-12-28T06:15:17;11.00;99.90
21019;DHT22;10667;51.056;3.732;2023-12-28T06:17:43;11.10;99.90
21019;DHT22;10667;51.056;3.732;2023-12-28T06:20:09;11.10;99.90
21019;DHT22;10667;51.056;3.732;2023-12-28T06:22:37;11.10;99.90
21019;DHT22;10667;51.056;3.732;2023-12-28T06:25:04;11.20;99.90
21019;DHT22;10667;51.056;3.732;2023-12-28T06:27:30;11.10;99.90
21019;DHT22;10667;51.056;3.732;2023-12-28T06:29:55;11.00;99.90
21019;DHT22;10667;51.056;3.732;2023-12-28T06:32:21;10.90;99.90
21019;DHT22;10667;51.056;3.732;2023-12-28T06:34:47;10.90;99.90
21019;DHT22;10667;51.056;3.732;2023-12-28T06:37:13;10.90;99.90
21019;DHT22;10667;51.056;3.732;2023-12-28T06:39:39;10.90;99.90
21019;DHT22;10667;51.056;3.732;2023-12-28T06:42:05;11.00;99.90
21019;DHT22;10667;51.056;3.732;2023-12-28T06:44:31;11.00;99.90
21019;DHT22;10667;51.056;3.732;2023-12-28T06:46:56;11.00;99.90
21019;DHT22;10667;51.056;3.732;2023-12-28T06:49:22;11.00;99.90
21019;DHT22;10667;51.056;3.732;2023-12-28T06:51:48;10.90;99.90
21019;DHT22;10667;51.056;3.732;2023-12-28T06:54:13;10.90;99.90
21019;DHT22;10667;51.056;3.732;2023-12-28T06:56:40;10.90;99.90
21019;DHT22;10667;51.056;3.732;2023-12-28T06:59:06;10.90;99.90
21019;DHT22;10667;51.056;3.732;2023-12-28T07:01:31;10.90;99.90
21019;DHT22;10667;51.056;3.732;2023-12-28T07:03:57;10.90;99.90
21019;DHT22;10667;51.056;3.732;2023-12-28T07:06:25;10.90;99.90
21019;DHT22;10667;51.056;3.732;2023-12-28T07:08:50;11.00;99.90
21019;DHT22;10667;51.056;3.732;2023-12-28T07:11:16;11.00;99.90
21019;DHT22;10667;51.056;3.732;2023-12-28T07:13:42;11.00;99.90
21019;DHT22;10667;51.056;3.732;2023-12-28T07:16:08;11.10;99.90
21019;DHT22;10667;51.056;3.732;2023-12-28T07:18:33;11.10;99.90
21019;DHT22;10667;51.056;3.732;2023-12-28T07:20:59;11.10;99.90
21019;DHT22;10667;51.056;3.732;2023-12-28T07:23:26;11.10;99.90
21019;DHT22;10667;51.056;3.732;2023-12-28T07:25:52;11.10;99.90
21019;DHT22;10667;51.056;3.732;2023-12-28T07:28:18;11.10;99.90
21019;DHT22;10667;51.056;3.732;2023-12-28T07:30:44;11.00;99.90
21019;DHT22;10667;51.056;3.732;2023-12-28T07:33:10;11.20;99.90
21019;DHT22;10667;51.056;3.732;2023-12-28T07:35:35;11.20;99.90
21019;DHT22;10667;51.056;3.732;2023-12-28T07:38:01;11.20;99.90
21019;DHT22;10667;51.056;3.732;2023-12-28T07:40:27;11.20;99.90
21019;DHT22;10667;51.056;3.732;2023-12-28T07:42:53;11.10;99.90
21019;DHT22;10667;51.056;3.732;2023-12-28T07:45:18;11.10;99.90
21019;DHT22;10667;51.056;3.732;2023-12-28T07:47:49;11.00;99.90
21019;DHT22;10667;51.056;3.732;2023-12-28T07:50:16;11.00;99.90
21019;DHT22;10667;51.056;3.732;2023-12-28T07:52:42;10.90;99.90
21019;DHT22;10667;51.056;3.732;2023-12-28T07:55:08;10.90;99.90
21019;DHT22;10667;51.056;3.732;2023-12-28T07:57:35;10.90;99.90
21019;DHT22;10667;51.056;3.732;2023-12-28T08:00:01;10.90;99.90
21019;DHT22;10667;51.056;3.732;2023-12-28T08:02:27;10.80;99.90
21019;DHT22;10667;51.056;3.732;2023-12-28T08:04:53;10.80;99.90
21019;DHT22;10667;51.056;3.732;2023-12-28T08:07:18;10.90;99.90
21019;DHT22;10667;51.056;3.732;2023-12-28T08:09:44;10.90;99.90
21019;DHT22;10667;51.056;3.732;2023-12-28T08:12:10;10.90;99.90
21019;DHT22;10667;51.056;3.732;2023-12-28T08:14:35;10.90;99.90
21019;DHT22;10667;51.056;3.732;2023-12-28T08:17:01;10.90;99.90
21019;DHT22;10667;51.056;3.732;2023-12-28T08:19:27;10.90;99.90
21019;DHT22;10667;51.056;3.732;2023-12-28T08:21:52;10.90;99.90
21019;DHT22;10667;51.056;3.732;2023-12-28T08:24:18;10.90;99.90
21019;DHT22;10667;51.056;3.732;2023-12-28T08:26:43;10.90;99.90
21019;DHT22;10667;51.056;3.732;2023-12-28T08:29:09;11.00;99.90
21019;DHT22;10667;51.056;3.732;2023-12-28T08:31:35;11.00;99.90
21019;DHT22;10667;51.056;3.732;2023-12-28T08:34:01;11.00;99.90
21019;DHT22;10667;51.056;3.732;2023-12-28T08:36:26;11.00;99.90
21019;DHT22;10667;51.056;3.732;2023-12-28T08:38:52;11.10;99.90
21019;DHT22;10667;51.056;3.732;2023-12-28T08:41:21;11.10;99.90
21019;DHT22;10667;51.056;3.732;2023-12-28T08:43:49;11.20;99.90
21019;DHT22;10667;51.056;3.732;2023-12-28T08:46:15;11.30;99.90
21019;DHT22;10667;51.056;3.732;2023-12-28T08:48:42;11.30;99.90
21019;DHT22;10667;51.056;3.732;2023-12-28T08:51:09;11.30;99.90
21019;DHT22;10667;51.056;3.732;2023-12-28T08:53:34;11.30;99.90
21019;DHT22;10667;51.056;3.732;2023-12-28T08:56:00;11.30;99.90
21019;DHT22;10667;51.056;3.732;2023-12-28T08:58:25;11.30;99.90
21019;DHT22;10667;51.056;3.732;2023-12-28T09:00:51;11.30;99.90
21019;DHT22;10667;51.056;3.732;2023-12-28T09:03:17;11.40;99.90
21019;DHT22;10667;51.056;3.732;2023-12-28T09:05:43;11.30;99.90
21019;DHT22;10667;51.056;3.732;2023-12-28T09:08:08;11.40;99.90
21019;DHT22;10667;51.056;3.732;2023-12-28T09:10:34;11.30;99.90
21019;DHT22;10667;51.056;3.732;2023-12-28T09:13:00;11.30;99.90
21019;DHT22;10667;51.056;3.732;2023-12-28T09:15:25;11.30;99.90
21019;DHT22;10667;51.056;3.732;2023-12-28T09:17:51;11.40;99.90
21019;DHT22;10667;51.056;3.732;2023-12-28T09:20:18;11.30;99.90
21019;DHT22;10667;51.056;3.732;2023-12-28T09:22:44;11.30;99.90
21019;DHT22;10667;51.056;3.732;2023-12-28T09:25:11;11.40;99.90
21019;DHT22;10667;51.056;3.732;2023-12-28T09:27:37;11.40;99.90
21019;DHT22;10667;51.056;3.732;2023-12-28T09:30:02;11.40;99.90
21019;DHT22;10667;51.056;3.732;2023-12-28T09:32:28;11.40;99.90
21019;DHT22;10667;51.056;3.732;2023-12-28T09:34:54;11.50;99.90
21019;DHT22;10667;51.056;3.732;2023-12-28T09:37:20;11.50;99.90
21019;DHT22;10667;51.056;3.732;2023-12-28T09:39:45;11.50;99.90
21019;DHT22;10667;51.056;3.732;2023-12-28T09:42:29;11.50;99.90
21019;DHT22;10667;51.056;3.732;2023-12-28T09:44:57;11.50;99.90
21019;DHT22;10667;51.056;3.732;2023-12-28T09:47:23;11.40;99.90
21019;DHT22;10667;51.056;3.732;2023-12-28T09:49:49;11.40;99.90
21019;DHT22;10667;51.056;3.732;2023-12-28T09:52:14;11.50;99.90
21019;DHT22;10667;51.056;3.732;2023-12-28T09:54:40;11.60;99.90
21019;DHT22;10667;51.056;3.732;2023-12-28T09:57:06;11.60;99.90
21019;DHT22;10667;51.056;3.732;2023-12-28T09:59:32;11.60;99.90
21019;DHT22;10667;51.056;3.732;2023-12-28T10:02:00;11.70;99.90
21019;DHT22;10667;51.056;3.732;2023-12-28T10:04:28;11.70;99.90
21019;DHT22;10667;51.056;3.732;2023-12-28T10:06:54;11.80;99.90
21019;DHT22;10667;51.056;3.732;2023-12-28T10:09:21;11.80;99.90
21019;DHT22;10667;51.056;3.732;2023-12-28T10:11:47;11.80;99.90
21019;DHT22;10667;51.056;3.732;2023-12-28T10:14:13;11.70;99.90
21019;DHT22;10667;51.056;3.732;2023-12-28T10:16:42;11.80;99.90
21019;DHT22;10667;51.056;3.732;2023-12-28T10:19:08;11.80;99.90
21019;DHT22;10667;51.056;3.732;2023-12-28T10:21:33;11.70;99.90
21019;DHT22;10667;51.056;3.732;2023-12-28T10:23:59;11.70;99.90
21019;DHT22;10667;51.056;3.732;2023-12-28T10:26:25;11.70;99.90
21019;DHT22;10667;51.056;3.732;2023-12-28T10:28:58;11.70;99.90
21019;DHT22;10667;51.056;3.732;2023-12-28T10:31:24;11.80;99.90
21019;DHT22;10667;51.056;3.732;2023-12-28T10:33:50;11.90;99.90
21019;DHT22;10667;51.056;3.732;2023-12-28T10:36:15;11.80;99.90
21019;DHT22;10667;51.056;3.732;2023-12-28T10:38:43;11.80;99.90
21019;DHT22;10667;51.056;3.732;2023-12-28T10:41:11;11.80;99.90
21019;DHT22;10667;51.056;3.732;2023-12-28T10:43:48;11.80;99.90
21019;DHT22;10667;51.056;3.732;2023-12-28T10:46:25;11.90;99.90
21019;DHT22;10667;51.056;3.732;2023-12-28T10:48:55;11.90;99.90
21019;DHT22;10667;51.056;3.732;2023-12-28T10:51:25;11.90;99.90
21019;DHT22;10667;51.056;3.732;2023-12-28T10:54:28;11.90;99.90
21019;DHT22;10667;51.056;3.732;2023-12-28T11:00:13;11.90;99.90
21019;DHT22;10667;51.056;3.732;2023-12-28T11:02:45;11.90;99.90
21019;DHT22;10667;51.056;3.732;2023-12-28T11:05:15;11.90;99.90
21019;DHT22;10667;51.056;3.732;2023-12-28T11:07:43;11.90;99.90
21019;DHT22;10667;51.056;3.732;2023-12-28T11:10:09;12.00;99.90
21019;DHT22;10667;51.056;3.732;2023-12-28T11:12:37;12.00;99.90
21019;DHT22;10667;51.056;3.732;2023-12-28T11:15:05;12.00;99.90
21019;DHT22;10667;51.056;3.732;2023-12-28T11:17:32;12.00;99.90
21019;DHT22;10667;51.056;3.732;2023-12-28T11:19:59;12.10;99.90
21019;DHT22;10667;51.056;3.732;2023-12-28T11:22:26;12.10;99.90
21019;DHT22;10667;51.056;3.732;2023-12-28T11:24:53;12.20;99.90
21019;DHT22;10667;51.056;3.732;2023-12-28T11:27:19;12.20;99.90
21019;DHT22;10667;51.056;3.732;2023-12-28T11:29:47;12.20;99.90
21019;DHT22;10667;51.056;3.732;2023-12-28T11:32:13;12.10;99.90
21019;DHT22;10667;51.056;3.732;2023-12-28T11:34:39;12.20;99.90
21019;DHT22;10667;51.056;3.732;2023-12-28T11:37:14;12.20;99.90
21019;DHT22;10667;51.056;3.732;2023-12-28T11:39:44;12.20;99.90
21019;DHT22;10667;51.056;3.732;2023-12-28T11:42:10;12.20;99.90
21019;DHT22;10667;51.056;3.732;2023-12-28T11:44:41;12.20;99.90
21019;DHT22;10667;51.056;3.732;2023-12-28T11:47:21;12.20;99.90
21019;DHT22;10667;51.056;3.732;2023-12-28T11:49:48;12.30;99.90
21019;DHT22;10667;51.056;3.732;2023-12-28T11:52:30;12.20;99.90
21019;DHT22;10667;51.056;3.732;2023-12-28T11:54:57;12.30;99.90
21019;DHT22;10667;51.056;3.732;2023-12-28T11:57:23;12.40;99.90
21019;DHT22;10667;51.056;3.732;2023-12-28T11:59:57;12.30;99.90
21019;DHT22;10667;51.056;3.732;2023-12-28T12:02:23;12.30;99.90
21019;DHT22;10667;51.056;3.732;2023-12-28T12:04:49;12.40;99.90
21019;DHT22;10667;51.056;3.732;2023-12-28T12:07:15;12.50;99.90
21019;DHT22;10667;51.056;3.732;2023-12-28T12:09:42;12.60;99.90
21019;DHT22;10667;51.056;3.732;2023-12-28T12:12:08;12.60;99.90
21019;DHT22;10667;51.056;3.732;2023-12-28T12:14:34;12.50;99.90
21019;DHT22;10667;51.056;3.732;2023-12-28T12:17:00;12.50;99.90
21019;DHT22;10667;51.056;3.732;2023-12-28T12:19:27;12.50;99.90
21019;DHT22;10667;51.056;3.732;2023-12-28T12:21:53;12.40;99.90
21019;DHT22;10667;51.056;3.732;2023-12-28T12:24:20;12.40;99.90
21019;DHT22;10667;51.056;3.732;2023-12-28T12:26:46;12.40;99.90
21019;DHT22;10667;51.056;3.732;2023-12-28T12:29:12;12.50;99.90
21019;DHT22;10667;51.056;3.732;2023-12-28T12:31:38;12.40;99.90
21019;DHT22;10667;51.056;3.732;2023-12-28T12:34:10;12.50;99.90
21019;DHT22;10667;51.056;3.732;2023-12-28T12:36:36;12.50;99.90
21019;DHT22;10667;51.056;3.732;2023-12-28T12:39:02;12.50;99.90
21019;DHT22;10667;51.056;3.732;2023-12-28T12:41:32;12.60;99.90
21019;DHT22;10667;51.056;3.732;2023-12-28T12:43:58;12.60;99.90
21019;DHT22;10667;51.056;3.732;2023-12-28T12:46:25;12.60;99.90
21019;DHT22;10667;51.056;3.732;2023-12-28T12:48:58;12.70;99.90
21019;DHT22;10667;51.056;3.732;2023-12-28T12:51:25;12.70;99.90
21019;DHT22;10667;51.056;3.732;2023-12-28T12:53:55;12.70;99.90
21019;DHT22;10667;51.056;3.732;2023-12-28T12:56:21;12.70;99.90
21019;DHT22;10667;51.056;3.732;2023-12-28T12:58:46;12.70;99.90
21019;DHT22;10667;51.056;3.732;2023-12-28T13:01:12;12.80;99.90
21019;DHT22;10667;51.056;3.732;2023-12-28T13:03:37;12.80;99.90
21019;DHT22;10667;51.056;3.732;2023-12-28T13:06:04;12.80;99.90
21019;DHT22;10667;51.056;3.732;2023-12-28T13:08:29;12.80;99.90
21019;DHT22;10667;51.056;3.732;2023-12-28T13:10:55;12.70;99.90
21019;DHT22;10667;51.056;3.732;2023-12-28T13:13:21;12.80;99.90
21019;DHT22;10667;51.056;3.732;2023-12-28T13:15:47;12.80;99.90
21019;DHT22;10667;51.056;3.732;2023-12-28T13:18:12;12.80;99.90
21019;DHT22;10667;51.056;3.732;2023-12-28T13:20:38;12.80;99.90
21019;DHT22;10667;51.056;3.732;2023-12-28T13:23:04;12.80;99.90
21019;DHT22;10667;51.056;3.732;2023-12-28T13:25:29;12.80;99.90
21019;DHT22;10667;51.056;3.732;2023-12-28T13:27:55;12.80;99.90
21019;DHT22;10667;51.056;3.732;2023-12-28T13:30:21;12.90;99.90
21019;DHT22;10667;51.056;3.732;2023-12-28T13:32:47;12.80;99.90
21019;DHT22;10667;51.056;3.732;2023-12-28T13:35:13;12.80;99.90
21019;DHT22;10667;51.056;3.732;2023-12-28T13:37:39;12.70;99.90
21019;DHT22;10667;51.056;3.732;2023-12-28T13:40:06;12.80;99.90
21019;DHT22;10667;51.056;3.732;2023-12-28T13:42:32;12.70;99.90
21019;DHT22;10667;51.056;3.732;2023-12-28T13:44:57;12.70;99.90
21019;DHT22;10667;51.056;3.732;2023-12-28T13:47:23;12.70;99.90
21019;DHT22;10667;51.056;3.732;2023-12-28T13:49:49;12.70;99.90
21019;DHT22;10667;51.056;3.732;2023-12-28T13:52:14;12.70;99.90
21019;DHT22;10667;51.056;3.732;2023-12-28T13:54:40;12.70;99.90
21019;DHT22;10667;51.056;3.732;2023-12-28T13:57:07;12.70;99.90
21019;DHT22;10667;51.056;3.732;2023-12-28T13:59:32;12.60;99.90
21019;DHT22;10667;51.056;3.732;2023-12-28T14:01:58;12.70;99.90
21019;DHT22;10667;51.056;3.732;2023-12-28T14:04:24;12.80;99.90
21019;DHT22;10667;51.056;3.732;2023-12-28T14:06:50;12.70;99.90
21019;DHT22;10667;51.056;3.732;2023-12-28T14:09:16;12.70;99.90
21019;DHT22;10667;51.056;3.732;2023-12-28T14:11:46;12.70;99.90
21019;DHT22;10667;51.056;3.732;2023-12-28T14:14:12;12.60;99.90
21019;DHT22;10667;51.056;3.732;2023-12-28T14:16:38;12.70;99.90
21019;DHT22;10667;51.056;3.732;2023-12-28T14:19:04;12.70;99.90
21019;DHT22;10667;51.056;3.732;2023-12-28T14:21:37;12.70;99.90
21019;DHT22;10667;51.056;3.732;2023-12-28T14:24:04;12.50;99.90
21019;DHT22;10667;51.056;3.732;2023-12-28T14:26:32;12.50;99.90
21019;DHT22;10667;51.056;3.732;2023-12-28T14:28:58;12.60;99.90
21019;DHT22;10667;51.056;3.732;2023-12-28T14:31:25;12.50;99.90
21019;DHT22;10667;51.056;3.732;2023-12-28T14:33:52;12.60;99.90
21019;DHT22;10667;51.056;3.732;2023-12-28T14:36:33;12.70;99.90
21019;DHT22;10667;51.056;3.732;2023-12-28T14:39:00;12.60;99.90
21019;DHT22;10667;51.056;3.732;2023-12-28T14:41:26;12.60;99.90
21019;DHT22;10667;51.056;3.732;2023-12-28T14:43:56;12.50;99.90
21019;DHT22;10667;51.056;3.732;2023-12-28T14:46:25;12.50;99.90
21019;DHT22;10667;51.056;3.732;2023-12-28T14:48:51;12.50;99.90
21019;DHT22;10667;51.056;3.732;2023-12-28T14:51:17;12.50;99.90
21019;DHT22;10667;51.056;3.732;2023-12-28T14:53:42;12.50;99.90
21019;DHT22;10667;51.056;3.732;2023-12-28T14:56:08;12.60;99.90
21019;DHT22;10667;51.056;3.732;2023-12-28T14:58:34;12.60;99.90
21019;DHT22;10667;51.056;3.732;2023-12-28T15:01:00;12.60;99.90
21019;DHT22;10667;51.056;3.732;2023-12-28T15:03:25;12.60;99.90
21019;DHT22;10667;51.056;3.732;2023-12-28T15:05:52;12.50;99.90
21019;DHT22;10667;51.056;3.732;2023-12-28T15:08:17;12.60;99.90
21019;DHT22;10667;51.056;3.732;2023-12-28T15:10:44;12.60;99.90
21019;DHT22;10667;51.056;3.732;2023-12-28T15:13:10;12.60;99.90
21019;DHT22;10667;51.056;3.732;2023-12-28T15:15:37;12.60;99.90
21019;DHT22;10667;51.056;3.732;2023-12-28T15:18:03;12.60;99.90
21019;DHT22;10667;51.056;3.732;2023-12-28T15:20:29;12.50;99.90
21019;DHT22;10667;51.056;3.732;2023-12-28T15:22:55;12.50;99.90
21019;DHT22;10667;51.056;3.732;2023-12-28T15:25:21;12.50;99.90
21019;DHT22;10667;51.056;3.732;2023-12-28T15:27:47;12.50;99.90
21019;DHT22;10667;51.056;3.732;2023-12-28T15:30:13;12.50;99.90